createdAt,value
2023-01-29T00:00:30.692Z,71
2023-01-29T00:01:30.686Z,70
2023-01-29T00:02:30.685Z,69
2023-01-29T00:03:30.682Z,66
2023-01-29T00:04:30.692Z,68
2023-01-29T00:05:30.680Z,71
2023-01-29T00:06:30.708Z,65
2023-01-29T00:07:30.687Z,64
2023-01-29T00:08:30.685Z,65
2023-01-29T00:09:30.684Z,69
2023-01-29T00:10:30.679Z,65
2023-01-29T00:12:30.689Z,66
2023-01-29T00:13:30.689Z,67
2023-01-29T00:15:30.687Z,69
2023-01-29T00:16:30.686Z,67
2023-01-29T00:17:30.691Z,65
2023-01-29T00:18:30.680Z,70
2023-01-29T00:19:30.687Z,67
2023-01-29T00:20:30.694Z,65
2023-01-29T00:21:30.683Z,64
2023-01-29T00:22:30.715Z,65
2023-01-29T00:23:30.677Z,68
2023-01-29T00:24:30.739Z,64
2023-01-29T00:25:30.694Z,66
2023-01-29T00:26:30.685Z,66
2023-01-29T00:27:30.696Z,66
2023-01-29T00:28:30.693Z,67
2023-01-29T00:29:30.684Z,66
2023-01-29T00:30:30.754Z,66
2023-01-29T00:31:30.790Z,68
2023-01-29T00:32:30.692Z,64
2023-01-29T00:33:30.697Z,66
2023-01-29T00:34:30.682Z,68
2023-01-29T00:35:30.703Z,68
2023-01-29T00:36:30.689Z,67
2023-01-29T00:37:30.691Z,65
2023-01-29T00:38:30.680Z,65
2023-01-29T00:39:45.968Z,67
2023-01-29T00:40:30.704Z,64
2023-01-29T00:41:30.686Z,68
2023-01-29T00:42:30.684Z,65
2023-01-29T00:43:30.791Z,66
2023-01-29T00:44:30.683Z,64
2023-01-29T00:45:30.689Z,67
2023-01-29T00:46:30.740Z,67
2023-01-29T00:47:30.767Z,65
2023-01-29T00:48:30.685Z,65
2023-01-29T00:49:30.698Z,64
2023-01-29T00:50:30.685Z,66
2023-01-29T00:51:30.698Z,64
2023-01-29T00:52:30.682Z,62
2023-01-29T00:53:30.715Z,66
2023-01-29T00:54:32.935Z,67
2023-01-29T00:55:30.708Z,65
2023-01-29T00:56:30.683Z,67
2023-01-29T00:57:30.719Z,69
2023-01-29T00:58:30.685Z,65
2023-01-29T00:59:30.684Z,65
2023-01-29T01:00:30.760Z,66
2023-01-29T01:01:30.677Z,64
2023-01-29T01:02:30.685Z,63
2023-01-29T01:03:30.692Z,63
2023-01-29T01:04:30.691Z,63
2023-01-29T01:05:30.683Z,64
2023-01-29T01:07:30.693Z,64
2023-01-29T01:14:37.858Z,66
2023-01-29T01:57:30.696Z,65
2023-01-29T05:33:30.700Z,73
2023-01-29T05:56:30.677Z,72
2023-01-29T05:57:30.676Z,73
2023-01-29T05:58:30.679Z,71
2023-01-29T05:59:30.676Z,72
2023-01-29T06:00:30.665Z,73
2023-01-29T06:01:30.738Z,73
2023-01-29T06:02:30.694Z,75
2023-01-29T06:03:30.677Z,76
2023-01-29T06:04:30.732Z,77
2023-01-29T06:05:30.682Z,74
2023-01-29T06:06:30.670Z,75
2023-01-29T06:07:30.728Z,75
2023-01-29T06:08:30.680Z,77
2023-01-29T06:09:30.669Z,77
2023-01-29T06:10:30.677Z,76
2023-01-29T06:11:30.674Z,76
2023-01-29T06:12:30.672Z,75
2023-01-29T06:13:30.679Z,78
2023-01-29T06:14:30.666Z,74
2023-01-29T06:15:30.699Z,73
2023-01-29T06:16:30.736Z,76
2023-01-29T06:17:30.687Z,74
2023-01-29T06:18:30.668Z,71
2023-01-29T06:19:30.670Z,71
2023-01-29T06:20:30.678Z,72
2023-01-29T06:21:30.677Z,76
2023-01-29T06:22:30.679Z,73
2023-01-29T06:23:30.674Z,72
2023-01-29T06:24:30.746Z,76
2023-01-29T06:25:30.668Z,79
2023-01-29T06:26:30.677Z,77
2023-01-29T06:27:30.699Z,78
2023-01-29T06:28:30.665Z,77
2023-01-29T06:29:30.710Z,72
2023-01-29T06:30:30.697Z,76
2023-01-29T06:31:38.921Z,75
2023-01-29T06:32:30.713Z,77
2023-01-29T06:33:30.680Z,79
2023-01-29T06:34:30.673Z,77
2023-01-29T06:35:30.670Z,78
2023-01-29T06:36:30.668Z,81
2023-01-29T06:37:30.666Z,77
2023-01-29T06:38:30.669Z,83
2023-01-29T06:39:30.671Z,78
2023-01-29T06:40:30.664Z,83
2023-01-29T06:41:30.680Z,80
2023-01-29T06:42:30.668Z,80
2023-01-29T06:43:30.665Z,86
2023-01-29T06:44:30.671Z,78
2023-01-29T06:45:30.708Z,80
2023-01-29T06:46:30.671Z,79
2023-01-29T06:47:30.675Z,78
2023-01-29T06:48:30.662Z,78
2023-01-29T06:49:30.660Z,75
2023-01-29T06:50:30.669Z,78
2023-01-29T06:51:30.663Z,79
2023-01-29T06:52:30.668Z,78
2023-01-29T06:53:30.671Z,79
2023-01-29T06:54:30.671Z,77
2023-01-29T06:55:30.668Z,80
2023-01-29T06:56:30.667Z,75
2023-01-29T06:57:30.692Z,77
2023-01-29T06:58:30.680Z,74
2023-01-29T06:59:30.671Z,80
2023-01-29T07:00:31.598Z,74
2023-01-29T07:01:36.015Z,75
2023-01-29T07:02:30.736Z,75
2023-01-29T07:03:30.693Z,71
2023-01-29T07:04:30.678Z,74
2023-01-29T07:05:30.671Z,70
2023-01-29T07:06:30.662Z,68
2023-01-29T07:07:30.692Z,73
2023-01-29T07:08:30.677Z,68
2023-01-29T07:09:30.666Z,73
2023-01-29T07:10:30.681Z,69
2023-01-29T07:11:30.667Z,68
2023-01-29T07:12:30.662Z,70
2023-01-29T07:14:30.669Z,71
2023-01-29T07:15:30.668Z,72
2023-01-29T07:16:30.714Z,71
2023-01-29T07:17:30.672Z,68
2023-01-29T07:18:30.665Z,69
2023-01-29T07:19:30.667Z,71
2023-01-29T07:20:30.669Z,68
2023-01-29T07:21:30.668Z,73
2023-01-29T07:22:30.679Z,76
2023-01-29T07:23:30.671Z,73
2023-01-29T07:24:30.720Z,78
2023-01-29T07:25:30.676Z,71
2023-01-29T07:26:30.670Z,74
2023-01-29T07:27:30.675Z,75
2023-01-29T07:28:30.683Z,71
2023-01-29T07:29:30.667Z,69
2023-01-29T07:30:30.686Z,74
2023-01-29T07:31:30.837Z,72
2023-01-29T07:32:30.660Z,68
2023-01-29T07:33:30.671Z,72
2023-01-29T07:35:30.673Z,71
2023-01-29T07:36:30.714Z,72
2023-01-29T07:37:30.663Z,71
2023-01-29T07:38:30.657Z,72
2023-01-29T07:39:30.663Z,70
2023-01-29T07:40:30.669Z,69
2023-01-29T07:41:30.698Z,69
2023-01-29T07:42:30.667Z,74
2023-01-29T07:43:30.664Z,71
2023-01-29T07:44:30.669Z,76
2023-01-29T07:45:30.761Z,73
2023-01-29T07:46:30.661Z,69
2023-01-29T07:47:30.668Z,73
2023-01-29T07:48:30.666Z,75
2023-01-29T07:49:30.661Z,77
2023-01-29T07:50:30.668Z,79
2023-01-29T07:51:30.678Z,75
2023-01-29T07:52:30.668Z,76
2023-01-29T07:53:30.665Z,72
2023-01-29T07:54:30.673Z,74
2023-01-29T07:55:30.713Z,75
2023-01-29T07:56:30.662Z,72
2023-01-29T07:57:30.667Z,80
2023-01-29T07:58:30.670Z,76
2023-01-29T08:00:30.676Z,74
2023-01-29T08:01:30.718Z,71
2023-01-29T08:02:30.666Z,77
2023-01-29T08:03:30.663Z,74
2023-01-29T08:04:30.694Z,74
2023-01-29T08:05:30.743Z,71
2023-01-29T08:06:30.664Z,73
2023-01-29T08:07:30.675Z,69
2023-01-29T08:08:30.679Z,74
2023-01-29T08:09:30.666Z,72
2023-01-29T08:10:30.695Z,71
2023-01-29T08:11:30.739Z,70
2023-01-29T08:12:30.693Z,70
2023-01-29T08:13:30.668Z,72
2023-01-29T08:14:30.669Z,72
2023-01-29T08:15:30.679Z,67
2023-01-29T08:16:30.819Z,71
2023-01-29T08:17:30.663Z,68
2023-01-29T08:18:30.663Z,79
2023-01-29T08:19:30.664Z,74
2023-01-29T08:20:30.693Z,74
2023-01-29T08:21:30.668Z,77
2023-01-29T08:22:30.666Z,73
2023-01-29T08:23:30.667Z,76
2023-01-29T08:24:41.603Z,78
2023-01-29T08:25:30.757Z,77
2023-01-29T08:26:30.668Z,77
2023-01-29T08:27:30.664Z,72
2023-01-29T08:28:31.048Z,78
2023-01-29T08:29:30.665Z,82
2023-01-29T08:30:30.675Z,76
2023-01-29T08:31:30.708Z,74
2023-01-29T08:32:30.718Z,72
2023-01-29T08:33:38.651Z,73
2023-01-29T08:34:30.659Z,77
2023-01-29T08:37:30.664Z,74
2023-01-29T08:38:31.052Z,82
2023-01-29T08:39:30.961Z,76
2023-01-29T08:40:30.668Z,76
2023-01-29T08:41:30.716Z,74
2023-01-29T08:42:30.679Z,77
2023-01-29T08:43:30.666Z,76
2023-01-29T08:44:30.670Z,79
2023-01-29T08:45:30.669Z,80
2023-01-29T08:46:30.669Z,75
2023-01-29T08:47:30.669Z,75
2023-01-29T08:48:30.691Z,80
2023-01-29T08:49:30.672Z,75
2023-01-29T08:50:30.768Z,79
2023-01-29T08:51:30.675Z,74
2023-01-29T08:52:30.663Z,78
2023-01-29T08:53:30.765Z,71
2023-01-29T08:54:30.666Z,74
2023-01-29T08:55:30.659Z,73
2023-01-29T08:56:30.664Z,74
2023-01-29T08:57:30.665Z,76
2023-01-29T08:58:30.657Z,74
2023-01-29T08:59:30.660Z,71
2023-01-29T09:00:30.664Z,71
2023-01-29T09:01:30.721Z,73
2023-01-29T09:02:30.742Z,73
2023-01-29T09:03:30.656Z,71
2023-01-29T09:04:30.656Z,76
2023-01-29T09:05:30.660Z,69
2023-01-29T09:06:30.669Z,73
2023-01-29T09:07:30.662Z,72
2023-01-29T09:08:30.665Z,69
2023-01-29T09:09:30.673Z,74
2023-01-29T09:10:30.661Z,72
2023-01-29T09:11:30.686Z,74
2023-01-29T09:12:30.661Z,71
2023-01-29T09:13:30.664Z,73
2023-01-29T09:14:30.663Z,73
2023-01-29T09:15:30.692Z,71
2023-01-29T09:16:30.687Z,73
2023-01-29T09:17:30.667Z,72
2023-01-29T09:18:30.663Z,73
2023-01-29T09:19:30.661Z,71
2023-01-29T09:20:30.680Z,71
2023-01-29T09:21:30.656Z,68
2023-01-29T09:22:30.656Z,74
2023-01-29T09:23:30.666Z,72
2023-01-29T09:25:30.662Z,71
2023-01-29T09:26:30.717Z,72
2023-01-29T09:27:30.686Z,74
2023-01-29T09:28:30.680Z,67
2023-01-29T09:29:30.663Z,72
2023-01-29T09:31:30.796Z,70
2023-01-29T09:32:52.522Z,73
2023-01-29T09:33:30.656Z,68
2023-01-29T09:34:30.659Z,75
2023-01-29T09:36:30.665Z,74
2023-01-29T09:37:30.717Z,73
2023-01-29T09:38:30.681Z,71
2023-01-29T09:39:30.984Z,75
2023-01-29T09:40:30.666Z,73
2023-01-29T09:41:30.949Z,78
2023-01-29T09:42:30.720Z,71
2023-01-29T09:43:30.669Z,75
2023-01-29T09:44:30.672Z,74
2023-01-29T09:45:30.678Z,71
2023-01-29T09:46:30.692Z,68
2023-01-29T09:47:30.663Z,70
2023-01-29T09:48:30.660Z,78
2023-01-29T09:49:30.656Z,73
2023-01-29T09:50:30.663Z,73
2023-01-29T09:52:30.655Z,72
2023-01-29T09:53:30.679Z,70
2023-01-29T09:54:30.659Z,68
2023-01-29T09:55:30.672Z,70
2023-01-29T09:56:30.655Z,72
2023-01-29T09:57:30.654Z,74
2023-01-29T09:58:30.662Z,73
2023-01-29T09:59:30.658Z,69
2023-01-29T10:00:30.660Z,70
2023-01-29T10:01:30.762Z,70
2023-01-29T10:02:30.669Z,72
2023-01-29T10:03:30.659Z,71
2023-01-29T10:04:30.740Z,76
2023-01-29T10:05:30.656Z,74
2023-01-29T10:06:30.664Z,66
2023-01-29T10:07:30.653Z,72
2023-01-29T10:08:30.653Z,72
2023-01-29T10:09:30.653Z,72
2023-01-29T10:10:30.658Z,71
2023-01-29T10:11:30.662Z,72
2023-01-29T10:12:30.664Z,72
2023-01-29T10:13:30.683Z,72
2023-01-29T10:14:30.659Z,70
2023-01-29T10:15:30.674Z,72
2023-01-29T10:16:30.709Z,68
2023-01-29T10:17:30.666Z,70
2023-01-29T10:18:30.662Z,69
2023-01-29T10:19:30.657Z,70
2023-01-29T10:20:30.651Z,69
2023-01-29T10:21:30.663Z,70
2023-01-29T10:22:30.658Z,72
2023-01-29T10:23:31.903Z,76
2023-01-29T10:24:30.662Z,69
2023-01-29T10:25:30.659Z,73
2023-01-29T10:26:30.679Z,70
2023-01-29T10:27:30.661Z,68
2023-01-29T10:28:30.663Z,67
2023-01-29T10:29:30.655Z,72
2023-01-29T10:30:30.686Z,70
2023-01-29T10:31:30.751Z,69
2023-01-29T10:32:30.658Z,68
2023-01-29T10:33:39.085Z,69
2023-01-29T10:34:30.668Z,67
2023-01-29T10:36:30.657Z,70
2023-01-29T10:37:30.661Z,67
2023-01-29T10:38:30.668Z,69
2023-01-29T10:39:30.666Z,68
2023-01-29T10:40:30.660Z,68
2023-01-29T10:41:30.664Z,70
2023-01-29T10:42:30.679Z,66
2023-01-29T10:43:30.685Z,64
2023-01-29T10:44:30.663Z,64
2023-01-29T10:45:30.659Z,66
2023-01-29T10:46:30.662Z,70
2023-01-29T10:47:30.850Z,69
2023-01-29T10:48:30.673Z,69
2023-01-29T10:49:30.819Z,69
2023-01-29T10:50:30.665Z,62
2023-01-29T10:51:30.666Z,67
2023-01-29T10:52:30.670Z,67
2023-01-29T10:53:30.675Z,66
2023-01-29T10:54:30.655Z,67
2023-01-29T10:55:30.656Z,64
2023-01-29T10:56:30.662Z,72
2023-01-29T10:57:30.674Z,70
2023-01-29T10:58:30.688Z,66
2023-01-29T10:59:30.659Z,66
2023-01-29T11:00:30.672Z,68
2023-01-29T11:01:30.717Z,67
2023-01-29T11:02:30.707Z,71
2023-01-29T11:03:30.713Z,70
2023-01-29T11:04:30.651Z,70
2023-01-29T11:05:30.654Z,67
2023-01-29T11:06:30.674Z,66
2023-01-29T11:07:30.664Z,69
2023-01-29T11:08:30.686Z,71
2023-01-29T11:10:30.659Z,67
2023-01-29T11:11:30.661Z,68
2023-01-29T11:12:30.932Z,71
2023-01-29T11:13:30.664Z,69
2023-01-29T11:14:30.668Z,70
2023-01-29T11:16:30.705Z,67
2023-01-29T11:17:30.667Z,69
2023-01-29T11:18:30.665Z,64
2023-01-29T11:19:30.660Z,69
2023-01-29T11:20:30.654Z,69
2023-01-29T11:21:30.668Z,67
2023-01-29T11:22:30.671Z,66
2023-01-29T11:23:30.653Z,69
2023-01-29T11:24:30.660Z,68
2023-01-29T11:25:30.656Z,68
2023-01-29T11:26:30.715Z,68
2023-01-29T11:27:30.659Z,71
2023-01-29T11:28:30.668Z,69
2023-01-29T11:29:30.668Z,65
2023-01-29T11:30:30.668Z,65
2023-01-29T11:31:30.779Z,68
2023-01-29T11:33:30.658Z,68
2023-01-29T11:34:30.707Z,68
2023-01-29T11:35:30.673Z,70
2023-01-29T11:36:30.667Z,69
2023-01-29T11:37:30.665Z,71
2023-01-29T11:38:30.661Z,70
2023-01-29T11:39:30.657Z,67
2023-01-29T11:40:30.666Z,67
2023-01-29T11:41:30.654Z,69
2023-01-29T11:42:30.869Z,67
2023-01-29T11:43:30.670Z,67
2023-01-29T11:44:30.659Z,65
2023-01-29T11:45:30.656Z,70
2023-01-29T11:46:30.674Z,67
2023-01-29T11:47:30.665Z,68
2023-01-29T11:48:30.660Z,72
2023-01-29T11:49:30.659Z,68
2023-01-29T11:50:30.650Z,66
2023-01-29T11:51:30.673Z,66
2023-01-29T11:52:30.651Z,65
2023-01-29T11:53:30.647Z,64
2023-01-29T11:54:30.666Z,68
2023-01-29T11:55:40.935Z,64
2023-01-29T11:56:30.822Z,66
2023-01-29T11:57:30.675Z,64
2023-01-29T11:58:30.661Z,66
2023-01-29T11:59:30.665Z,63
2023-01-29T12:00:30.769Z,67
2023-01-29T12:01:30.659Z,67
2023-01-29T12:02:30.713Z,63
2023-01-29T12:03:30.717Z,72
2023-01-29T12:04:30.659Z,63
2023-01-29T12:05:30.784Z,67
2023-01-29T12:06:30.658Z,65
2023-01-29T12:07:30.657Z,62
2023-01-29T12:08:30.684Z,64
2023-01-29T12:09:30.664Z,66
2023-01-29T12:10:30.655Z,65
2023-01-29T12:11:30.660Z,66
2023-01-29T12:12:30.651Z,67
2023-01-29T12:13:30.663Z,62
2023-01-29T12:14:30.660Z,63
2023-01-29T12:15:30.662Z,65
2023-01-29T12:16:30.713Z,66
2023-01-29T12:17:30.687Z,62
2023-01-29T12:18:30.667Z,63
2023-01-29T12:19:30.664Z,65
2023-01-29T12:20:30.660Z,64
2023-01-29T12:21:30.666Z,66
2023-01-29T12:22:30.655Z,62
2023-01-29T12:23:30.658Z,65
2023-01-29T12:24:30.688Z,63
2023-01-29T12:25:30.661Z,66
2023-01-29T12:26:30.709Z,67
2023-01-29T12:27:30.655Z,66
2023-01-29T12:28:30.657Z,66
2023-01-29T12:29:30.659Z,65
2023-01-29T12:30:30.685Z,66
2023-01-29T12:31:30.703Z,68
2023-01-29T12:32:30.699Z,67
2023-01-29T12:33:30.662Z,66
2023-01-29T12:34:30.661Z,67
2023-01-29T12:35:30.663Z,64
2023-01-29T12:36:30.659Z,66
2023-01-29T12:37:30.660Z,66
2023-01-29T12:38:30.657Z,64
2023-01-29T12:39:30.673Z,64
2023-01-29T12:40:30.661Z,67
2023-01-29T12:41:30.681Z,63
2023-01-29T12:42:30.682Z,63
2023-01-29T12:43:30.664Z,65
2023-01-29T12:44:30.653Z,63
2023-01-29T12:45:30.665Z,63
2023-01-29T12:46:30.725Z,62
2023-01-29T12:47:30.658Z,64
2023-01-29T12:48:30.670Z,65
2023-01-29T12:49:30.672Z,62
2023-01-29T12:50:30.652Z,62
2023-01-29T12:51:30.661Z,65
2023-01-29T12:52:30.665Z,64
2023-01-29T12:53:30.655Z,64
2023-01-29T12:54:30.660Z,66
2023-01-29T12:55:30.661Z,63
2023-01-29T12:56:30.657Z,67
2023-01-29T12:57:30.653Z,64
2023-01-29T12:58:30.663Z,67
2023-01-29T12:59:30.667Z,64
2023-01-29T13:00:30.667Z,64
2023-01-29T13:01:30.695Z,73
2023-01-29T13:02:30.660Z,63
2023-01-29T13:03:30.770Z,68
2023-01-29T13:04:30.655Z,64
2023-01-29T13:05:30.655Z,64
2023-01-29T13:06:30.662Z,62
2023-01-29T13:07:30.653Z,64
2023-01-29T13:08:30.651Z,66
2023-01-29T13:09:30.655Z,64
2023-01-29T13:10:30.656Z,64
2023-01-29T13:12:30.648Z,67
2023-01-29T13:13:30.657Z,64
2023-01-29T13:14:30.652Z,63
2023-01-29T13:15:30.660Z,65
2023-01-29T13:16:30.782Z,63
2023-01-29T13:17:30.661Z,61
2023-01-29T13:18:30.661Z,61
2023-01-29T13:19:30.660Z,61
2023-01-29T13:20:30.720Z,61
2023-01-29T13:21:30.657Z,62
2023-01-29T13:22:30.661Z,61
2023-01-29T13:23:30.658Z,62
2023-01-29T13:24:30.660Z,63
2023-01-29T13:25:30.662Z,63
2023-01-29T13:27:30.647Z,63
2023-01-29T13:28:30.675Z,60
2023-01-29T13:30:30.745Z,67
2023-01-29T13:31:30.673Z,61
2023-01-29T13:32:30.669Z,61
2023-01-29T13:33:30.661Z,59
2023-01-29T13:34:30.658Z,60
2023-01-29T13:35:30.649Z,59
2023-01-29T13:36:30.651Z,61
2023-01-29T13:37:30.675Z,61
2023-01-29T13:38:30.696Z,59
2023-01-29T13:39:30.651Z,60
2023-01-29T13:40:30.650Z,63
2023-01-29T13:41:30.653Z,60
2023-01-29T13:42:30.649Z,59
2023-01-29T13:43:30.656Z,62
2023-01-29T13:44:30.650Z,59
2023-01-29T13:45:30.652Z,59
2023-01-29T13:46:30.670Z,62
2023-01-29T13:47:30.659Z,59
2023-01-29T13:48:30.653Z,64
2023-01-29T13:49:30.654Z,63
2023-01-29T13:50:30.653Z,64
2023-01-29T13:51:30.657Z,62
2023-01-29T13:52:30.660Z,63
2023-01-29T13:53:30.650Z,58
2023-01-29T13:54:30.663Z,61
2023-01-29T13:55:30.658Z,58
2023-01-29T13:56:30.664Z,61
2023-01-29T13:57:30.657Z,61
2023-01-29T13:58:30.723Z,62
2023-01-29T13:59:30.661Z,62
2023-01-29T14:00:30.657Z,62
2023-01-29T14:01:30.694Z,60
2023-01-29T14:02:30.778Z,63
2023-01-29T14:03:45.043Z,59
2023-01-29T14:04:30.659Z,60
2023-01-29T14:05:30.860Z,64
2023-01-29T14:06:30.653Z,60
2023-01-29T14:07:30.659Z,65
2023-01-29T14:08:30.683Z,60
2023-01-29T14:09:30.658Z,63
2023-01-29T14:10:30.707Z,59
2023-01-29T14:11:30.654Z,61
2023-01-29T14:12:30.658Z,58
2023-01-29T14:13:30.650Z,61
2023-01-29T14:14:30.657Z,64
2023-01-29T14:15:30.697Z,62
2023-01-29T14:16:30.697Z,62
2023-01-29T14:17:30.656Z,63
2023-01-29T14:18:30.665Z,62
2023-01-29T14:19:30.665Z,63
2023-01-29T14:22:31.023Z,57
2023-01-29T14:23:30.667Z,66
2023-01-29T14:24:30.665Z,61
2023-01-29T14:25:30.667Z,61
2023-01-29T14:26:30.722Z,60
2023-01-29T14:27:30.658Z,60
2023-01-29T14:28:30.668Z,58
2023-01-29T14:29:34.847Z,60
2023-01-29T14:30:30.727Z,60
2023-01-29T14:31:30.801Z,65
2023-01-29T14:32:30.658Z,61
2023-01-29T14:33:30.660Z,63
2023-01-29T14:35:30.671Z,62
2023-01-29T14:36:30.879Z,60
2023-01-29T14:37:30.655Z,59
2023-01-29T14:38:30.660Z,58
2023-01-29T14:39:30.657Z,63
2023-01-29T14:40:30.661Z,63
2023-01-29T14:41:30.651Z,61
2023-01-29T14:43:30.671Z,67
2023-01-29T14:44:30.667Z,61
2023-01-29T14:45:30.656Z,61
2023-01-29T14:46:30.715Z,61
2023-01-29T14:48:30.661Z,59
2023-01-29T14:49:30.664Z,59
2023-01-29T14:50:30.661Z,64
2023-01-29T14:51:30.653Z,62
2023-01-29T14:52:31.092Z,59
2023-01-29T14:53:30.675Z,62
2023-01-29T14:54:30.661Z,59
2023-01-29T14:55:30.672Z,58
2023-01-29T14:56:30.733Z,61
2023-01-29T14:57:30.714Z,62
2023-01-29T14:58:30.665Z,60
2023-01-29T14:59:30.666Z,61
2023-01-29T15:00:30.656Z,59
2023-01-29T15:01:30.710Z,60
2023-01-29T15:02:30.771Z,60
2023-01-29T15:04:30.661Z,60
2023-01-29T15:05:30.651Z,58
2023-01-29T15:06:30.663Z,62
2023-01-29T15:07:30.655Z,58
2023-01-29T15:08:30.667Z,62
2023-01-29T15:10:30.659Z,58
2023-01-29T15:11:30.674Z,59
2023-01-29T15:13:30.658Z,59
2023-01-29T15:14:30.656Z,61
2023-01-29T15:15:30.751Z,64
2023-01-29T15:17:30.657Z,57
2023-01-29T15:19:30.655Z,61
2023-01-29T15:20:30.657Z,61
2023-01-29T15:21:30.652Z,61
2023-01-29T15:22:30.782Z,57
2023-01-29T15:23:30.669Z,62
2023-01-29T15:24:30.649Z,65
2023-01-29T15:25:30.659Z,62
2023-01-29T15:26:30.758Z,59
2023-01-29T15:27:30.659Z,57
2023-01-29T15:28:30.653Z,62
2023-01-29T15:29:30.651Z,61
2023-01-29T15:30:30.675Z,65
2023-01-29T15:31:30.793Z,59
2023-01-29T15:32:30.724Z,58
2023-01-29T15:33:30.669Z,60
2023-01-29T15:34:30.661Z,59
2023-01-29T15:35:30.652Z,57
2023-01-29T15:36:30.657Z,56
2023-01-29T15:37:30.846Z,59
2023-01-29T15:38:30.652Z,59
2023-01-29T15:40:30.653Z,60
2023-01-29T15:41:30.663Z,59
2023-01-29T15:42:30.957Z,65
2023-01-29T15:43:30.668Z,61
2023-01-29T15:44:30.654Z,60
2023-01-29T15:45:30.655Z,59
2023-01-29T15:46:30.658Z,62
2023-01-29T15:47:30.796Z,61
2023-01-29T15:48:32.823Z,58
2023-01-29T15:49:30.668Z,59
2023-01-29T15:50:30.654Z,63
2023-01-29T15:51:30.736Z,58
2023-01-29T15:52:30.720Z,58
2023-01-29T15:53:30.658Z,60
2023-01-29T15:54:30.657Z,58
2023-01-29T15:55:30.652Z,62
2023-01-29T15:56:30.666Z,62
2023-01-29T15:57:30.709Z,60
2023-01-29T15:58:30.647Z,59
2023-01-29T15:59:30.720Z,56
2023-01-29T16:00:30.652Z,59
2023-01-29T16:01:30.781Z,56
2023-01-29T16:02:30.721Z,57
2023-01-29T16:04:30.653Z,60
2023-01-29T16:05:30.669Z,57
2023-01-29T16:06:30.656Z,57
2023-01-29T16:07:30.668Z,58
2023-01-29T16:08:30.659Z,57
2023-01-29T16:09:30.655Z,57
2023-01-29T16:11:30.659Z,56
2023-01-29T16:12:30.664Z,56
2023-01-29T16:13:30.648Z,54
2023-01-29T16:14:30.652Z,54
2023-01-29T16:15:30.657Z,52
2023-01-29T16:16:30.735Z,54
2023-01-29T16:17:30.649Z,56
2023-01-29T16:18:30.660Z,53
2023-01-29T16:19:30.653Z,54
2023-01-29T16:20:30.646Z,55
2023-01-29T16:21:30.660Z,54
2023-01-29T16:22:30.670Z,49
2023-01-29T16:23:30.687Z,51
2023-01-29T16:26:30.691Z,50
2023-01-29T16:27:30.665Z,49
2023-01-29T16:28:30.657Z,50
2023-01-29T16:29:30.649Z,51
2023-01-29T16:30:30.721Z,51
2023-01-29T16:31:30.755Z,51
2023-01-29T16:32:30.663Z,52
2023-01-29T16:33:30.655Z,50
2023-01-29T16:34:30.654Z,48
2023-01-29T16:35:30.662Z,47
2023-01-29T16:36:30.661Z,50
2023-01-29T16:37:30.654Z,50
2023-01-29T16:38:30.658Z,47
2023-01-29T16:39:30.683Z,48
2023-01-29T16:40:30.657Z,48
2023-01-29T16:41:30.659Z,46
2023-01-29T16:42:30.666Z,46
2023-01-29T16:43:37.489Z,46
2023-01-29T16:44:30.662Z,48
2023-01-29T16:45:30.652Z,47
2023-01-29T16:46:30.662Z,47
2023-01-29T16:47:30.643Z,48
2023-01-29T16:51:30.645Z,49
2023-01-29T16:52:30.659Z,50
2023-01-29T16:53:30.648Z,43
2023-01-29T16:54:30.651Z,48
2023-01-29T16:55:31.373Z,46
2023-01-29T16:57:30.658Z,46
2023-01-29T16:58:30.671Z,46
2023-01-29T17:00:30.722Z,43
2023-01-29T17:01:30.651Z,46
2023-01-29T17:02:30.653Z,46
2023-01-29T17:05:30.650Z,48
2023-01-29T17:06:30.667Z,47
2023-01-29T17:07:30.648Z,44
2023-01-29T17:09:30.648Z,48
2023-01-29T17:10:30.652Z,44
2023-01-29T17:11:30.648Z,48
2023-01-29T17:12:30.681Z,44
2023-01-29T17:13:30.652Z,50
2023-01-29T17:14:30.650Z,45
2023-01-29T17:15:30.649Z,45
2023-01-29T17:16:30.733Z,44
2023-01-29T17:17:30.652Z,47
2023-01-29T17:18:30.652Z,45
2023-01-29T17:19:30.671Z,45
2023-01-29T17:22:30.652Z,45
2023-01-29T17:23:30.655Z,45
2023-01-29T17:24:30.648Z,43
2023-01-29T17:25:30.654Z,50
2023-01-29T17:47:31.720Z,50
2023-01-29T17:49:31.719Z,51
2023-01-29T19:16:31.737Z,46
2023-01-29T19:18:31.710Z,48
2023-01-29T21:24:31.725Z,51
2023-01-29T23:38:31.736Z,58
